Latest Weather Observations for Geelong Racecourse

IDV60901

Issued at 12:41 pm EST Thursday 28 July 2016 (issued every 10 minutes, with the page automatically refreshed every 10 minutes)

About weather observations | Map of Melbourne area stations | Latest observations for Melbourne area | Other Formats
Station Details ID: 087184 Name: GEELONG RACECOURSE Lat: -38.17 Lon: 144.38 Height: 12.9 m
Data from the previous 72 hours. | See also: Recent months at Geelong Racecourse
Date/Time
EST
Temp
°C
App
Temp
°C
Dew
Point
°C
Rel
Hum
%
Delta-T
°C
Wind Press
QNH
hPa
Press
MSL
hPa
Rain since
9am
mm
Dir  Spd
km/h
Gust
km/h
Spd
kts
Gust
kts
28/12:30pm 13.3 7.5 9.4 77 2.0 WNW 30 50 16 27 1022.2 1022.2 0.0
28/12:23pm 13.2 7.7 9.1 76 2.1 WNW 28 48 15 26 1022.2 1022.2 0.0
28/12:00pm 13.4 8.4 9.5 77 2.0 WNW 26 48 14 26 1022.2 1022.2 0.0
28/11:51am 13.5 8.0 9.0 74 2.3 WNW 28 48 15 26 1022.3 1022.3 0.0
28/11:30am 13.9 8.3 8.7 71 2.6 WNW 28 41 15 22 1022.5 1022.5 0.0
28/11:00am 13.4 7.4 8.7 73 2.3 WNW 30 52 16 28 1022.7 1022.7 0.0
28/10:55am 13.4 7.8 8.7 73 2.4 WNW 28 52 15 28 1022.7 1022.7 0.0
28/10:30am 13.5 8.7 8.8 73 2.4 WNW 24 43 13 23 1022.8 1022.8 0.0
28/10:00am 12.6 7.3 8.5 76 2.0 WNW 26 43 14 23 1022.5 1022.5 0.0
28/09:30am 11.8 7.4 8.8 82 1.5 WNW 22 33 12 18 1022.7 1022.7 0.0
28/09:00am 10.8 6.9 9.4 91 0.7 NW 20 39 11 21 1022.5 1022.5 0.0
28/08:30am 10.4 6.6 9.2 92 0.6 WNW 19 28 10 15 1022.5 1022.5 0.0
28/08:00am 9.8 7.0 8.7 93 0.5 WNW 13 26 7 14 1022.4 1022.4 0.0
28/07:30am 9.5 6.3 8.4 93 0.5 NW 15 24 8 13 1022.3 1022.3 0.0
28/07:00am 9.6 6.0 8.5 93 0.5 NW 17 28 9 15 1022.0 1022.0 0.0
28/06:30am 9.7 5.6 8.6 93 0.5 NW 20 30 11 16 1021.9 1021.9 0.0
28/06:00am 9.7 5.8 8.5 92 0.6 NW 19 28 10 15 1021.5 1021.5 0.0
28/05:30am 9.5 5.9 8.3 92 0.6 NW 17 24 9 13 1021.6 1021.6 0.0
28/05:00am 9.5 5.5 8.3 92 0.6 NW 19 28 10 15 1021.4 1021.4 0.0
28/04:30am 9.9 6.4 8.7 92 0.6 WNW 17 28 9 15 1021.3 1021.3 0.0
28/04:00am 9.9 6.0 8.7 92 0.6 WNW 19 32 10 17 1021.3 1021.3 0.0
28/03:30am 9.8 5.7 8.6 92 0.6 WNW 20 32 11 17 1021.2 1021.2 0.0
28/03:00am 9.9 6.7 8.5 91 0.7 WNW 15 30 8 16 1021.6 1021.6 0.0
28/02:30am 9.7 5.5 8.1 90 0.8 WNW 20 37 11 20 1021.7 1021.7 0.0
28/02:00am 9.5 4.9 8.1 91 0.7 NW 22 35 12 19 1021.0 1021.0 0.0
28/01:30am 9.4 4.0 8.2 92 0.6 NW 26 35 14 19 1020.8 1020.8 0.0
28/01:04am 9.4 3.7 8.2 92 0.6 WNW 28 48 15 26 1020.6 1020.6 0.0
28/01:00am 9.3 3.9 8.1 92 0.6 WNW 26 48 14 26 1020.7 1020.7 0.0
28/12:30am 9.3 5.1 8.1 92 0.6 WNW 20 32 11 17 1021.1 1021.1 0.0
28/12:00am 9.0 4.7 7.8 92 0.6 WNW 20 32 11 17 1021.2 1021.2 0.0
 
Date/Time
EST
Temp
°C
App
Temp
°C
Dew
Point
°C
Rel
Hum
%
Delta-T
°C
Wind Press
QNH
hPa
Press
MSL
hPa
Rain since
9am
mm
Dir  Spd
km/h
Gust
km/h
Spd
kts
Gust
kts
27/11:30pm 8.9 4.8 7.7 92 0.6 WNW 19 30 10 16 1021.1 1021.1 0.0
27/11:00pm 8.7 4.9 7.5 92 0.6 WNW 17 28 9 15 1021.1 1021.1 0.0
27/10:30pm 8.7 4.5 7.5 92 0.6 WNW 19 30 10 16 1020.9 1020.9 0.0
27/10:00pm 8.8 5.0 7.4 91 0.7 NW 17 26 9 14 1020.9 1020.9 0.0
27/09:30pm 8.8 5.0 7.6 92 0.6 NW 17 26 9 14 1021.0 1021.0 0.0
27/09:00pm 9.1 4.7 7.4 89 0.8 WNW 20 32 11 17 1021.4 1021.4 0.0
27/08:30pm 9.1 5.6 7.1 87 0.9 WNW 15 26 8 14 1021.5 1021.5 0.0
27/08:00pm 8.9 5.3 6.9 87 0.9 WNW 15 24 8 13 1021.1 1021.1 0.0
27/07:30pm 8.9 4.7 7.4 90 0.7 W 19 32 10 17 1020.8 1020.8 0.0
27/07:00pm 9.3 5.1 7.3 87 0.9 W 19 30 10 16 1020.7 1020.7 0.0
27/06:30pm 9.5 5.9 6.8 83 1.3 W 15 28 8 15 1020.1 1020.1 0.0
27/06:00pm 8.9 5.9 6.0 82 1.3 W 11 19 6 10 1019.3 1019.3 0.0
27/05:30pm 9.4 6.0 5.9 79 1.6 W 13 24 7 13 1018.7 1018.7 0.0
27/05:00pm 10.1 5.0 5.9 75 1.9 W 22 30 12 16 1018.7 1018.7 0.0
27/04:30pm 10.3 5.8 6.3 76 1.9 W 19 28 10 15 1018.6 1018.6 0.0
27/04:00pm 10.0 4.2 6.3 78 1.7 W 26 43 14 23 1018.5 1018.5 0.0
27/03:30pm 11.3 5.6 4.7 64 3.0 W 24 41 13 22 1017.9 1017.9 0.0
27/03:00pm 11.1 6.3 5.6 69 2.5 W 20 30 11 16 1017.5 1017.5 0.0
27/02:30pm 11.3 5.5 4.3 62 3.1 W 24 37 13 20 1016.9 1016.9 0.0
27/02:00pm 12.0 6.3 4.7 61 3.3 W 24 39 13 21 1016.4 1016.4 0.0
27/01:30pm 12.1 6.6 4.1 58 3.6 W 22 32 12 17 1016.3 1016.3 0.0
27/01:00pm 11.2 5.8 4.7 64 2.9 WSW 22 37 12 20 1016.3 1016.3 0.0
27/12:30pm 10.9 5.0 4.1 63 3.0 W 24 35 13 19 1016.2 1016.2 0.0
27/12:00pm 11.8 5.6 4.3 60 3.4 W 26 41 14 22 1016.0 1016.0 0.0
27/11:30am 10.9 6.0 5.2 68 2.6 W 20 28 11 15 1015.5 1015.5 0.0
27/11:00am 11.8 7.0 5.4 65 3.0 WSW 20 35 11 19 1015.3 1015.3 0.0
27/10:30am 11.0 5.4 5.3 68 2.6 WSW 24 33 13 18 1015.0 1015.0 0.0
27/10:00am 10.9 7.2 6.3 73 2.2 WSW 15 26 8 14 1014.5 1014.5 0.0
27/09:30am 10.3 7.5 8.4 88 0.9 W 13 19 7 10 1014.0 1014.0 0.0
27/09:00am 9.4 5.1 7.7 89 0.8 SW 20 33 11 18 1013.3 1013.3 0.0
27/08:50am 9.2 5.1 8.0 92 0.6 WSW 19 37 10 20 1013.1 1013.1 0.0
27/08:30am 8.8 6.6 7.7 93 0.5 WSW 9 13 5 7 1012.4 1012.4 0.0
27/08:00am 8.9 5.9 7.8 93 0.5 WSW 13 20 7 11 1011.5 1011.5 0.0
27/07:30am 9.1 6.2 8.2 94 0.4 WSW 13 19 7 10 1010.7 1010.7 0.0
27/07:00am 9.1 5.8 8.0 93 0.5 W 15 22 8 12 1009.6 1009.6 0.0
27/06:30am 8.8 5.0 7.7 93 0.5 W 17 24 9 13 1008.6 1008.6 0.0
27/06:00am 9.1 5.0 8.0 93 0.5 WNW 19 28 10 15 1007.6 1007.6 0.0
27/05:30am 9.2 5.5 8.1 93 0.5 WNW 17 28 9 15 1007.1 1007.1 0.0
27/05:00am 8.8 5.4 7.7 93 0.5 WNW 15 24 8 13 1006.5 1006.5 0.0
27/04:30am 9.0 5.2 7.5 90 0.7 WNW 17 28 9 15 1006.1 1006.1 0.0
27/04:00am 9.4 5.5 7.0 85 1.1 WNW 17 28 9 15 1005.6 1005.6 0.0
27/03:30am 9.2 5.1 6.3 82 1.3 NW 17 26 9 14 1005.3 1005.3 0.0
27/03:00am 9.1 6.1 5.8 80 1.5 NNW 11 20 6 11 1005.3 1005.3 0.0
27/02:30am 9.1 6.0 5.7 79 1.5 NNW 11 15 6 8 1005.0 1005.0 0.0
27/02:00am 9.1 5.6 5.5 78 1.6 NNW 13 20 7 11 1004.7 1004.7 0.0
27/01:30am 9.0 4.2 5.4 78 1.6 NNW 20 28 11 15 1004.3 1004.3 0.0
27/01:00am 9.1 5.6 5.3 77 1.7 N 13 22 7 12 1004.6 1004.6 0.0
27/12:30am 9.4 5.5 5.2 75 1.9 N 15 28 8 15 1004.9 1004.9 0.0
27/12:00am 9.6 5.6 4.8 72 2.2 N 15 28 8 15 1004.9 1004.9 0.0
 
Date/Time
EST
Temp
°C
App
Temp
°C
Dew
Point
°C
Rel
Hum
%
Delta-T
°C
Wind Press
QNH
hPa
Press
MSL
hPa
Rain since
9am
mm
Dir  Spd
km/h
Gust
km/h
Spd
kts
Gust
kts
26/11:30pm 9.8 6.1 4.6 70 2.3 N 13 19 7 10 1005.0 1005.0 0.0
26/11:00pm 9.9 5.5 4.7 70 2.3 N 17 28 9 15 1005.0 1005.0 0.0
26/10:30pm 9.9 5.0 4.3 68 2.5 N 19 30 10 16 1004.9 1004.9 0.0
26/10:00pm 9.6 5.5 4.2 69 2.4 N 15 24 8 13 1005.2 1005.2 0.0
26/09:30pm 9.5 5.0 4.1 69 2.4 N 17 24 9 13 1005.2 1005.2 0.0
26/09:00pm 9.4 5.3 4.2 70 2.3 N 15 28 8 15 1005.5 1005.5 0.0
26/08:30pm 9.0 4.9 4.6 74 1.9 N 15 24 8 13 1005.7 1005.7 0.0
26/08:00pm 9.0 5.3 4.6 74 2.0 N 13 20 7 11 1006.0 1006.0 0.0
26/07:30pm 9.1 5.0 4.5 73 2.0 N 15 24 8 13 1006.3 1006.3 0.0
26/07:00pm 8.8 5.2 4.8 76 1.8 N 13 20 7 11 1006.4 1006.4 0.0
26/06:30pm 9.1 5.1 4.7 74 2.0 N 15 22 8 12 1006.6 1006.6 0.0
26/06:00pm 8.9 4.4 4.3 73 2.0 N 17 28 9 15 1006.6 1006.6 0.0
26/05:30pm 9.3 4.4 4.1 70 2.3 N 19 30 10 16 1007.0 1007.0 0.0
26/05:00pm 10.0 5.5 4.0 66 2.7 N 17 28 9 15 1007.4 1007.4 0.0
26/04:30pm 10.3 5.1 3.8 64 2.9 NNW 20 33 11 18 1007.4 1007.4 0.0
26/04:00pm 10.3 5.8 4.0 65 2.8 N 17 28 9 15 1007.9 1007.9 0.0
26/03:30pm 10.4 5.2 3.4 62 3.1 NNW 20 32 11 17 1008.3 1008.3 0.0
26/03:00pm 10.1 5.1 3.6 64 2.8 NNW 19 37 10 20 1008.6 1008.6 0.0
26/02:30pm 9.8 4.2 3.5 65 2.7 NNW 22 32 12 17 1009.1 1009.1 0.0
26/02:00pm 9.9 3.9 3.4 64 2.8 NNW 24 35 13 19 1009.6 1009.6 0.0
26/01:30pm 9.7 4.1 3.4 65 2.7 NNW 22 35 12 19 1010.1 1010.1 0.0
26/01:00pm 9.8 4.8 3.8 66 2.6 NNW 19 30 10 16 1010.2 1010.2 0.0
26/12:30pm 9.5 2.4 3.3 65 2.7 NNW 30 43 16 23 1010.9 1010.9 0.0
26/12:00pm 9.6 3.7 3.8 67 2.5 NNW 24 39 13 21 1011.3 1011.3 0.0
26/11:30am 9.2 3.2 3.6 68 2.4 NNW 24 37 13 20 1011.7 1011.7 0.0
26/11:00am 8.9 3.7 3.3 68 2.4 NNW 20 30 11 16 1011.8 1011.8 0.0
26/10:30am 8.5 3.5 3.6 71 2.1 NNW 19 28 10 15 1012.0 1012.0 0.0
26/10:00am 8.4 3.2 3.5 71 2.1 NW 20 28 11 15 1011.8 1011.8 0.0
26/09:30am 7.8 2.2 3.5 74 1.8 NNW 22 33 12 18 1011.6 1011.6 0.0
26/09:00am 7.1 1.9 3.3 77 1.6 NNW 20 28 11 15 1011.6 1011.6 6.6
26/08:30am 6.6 1.6 3.6 81 1.3 NW 19 26 10 14 1011.6 1011.6 6.6
26/08:00am 5.5 0.9 3.7 88 0.8 NNW 17 22 9 12 1011.2 1011.2 6.6
26/07:30am 5.6 0.6 3.4 86 0.9 NW 19 30 10 16 1011.0 1011.0 6.6
26/07:00am 5.7 0.8 3.9 88 0.8 NW 19 26 10 14 1010.4 1010.4 6.6
26/06:30am 6.0 1.4 3.8 86 0.9 WNW 17 24 9 13 1010.3 1010.3 6.6
26/06:00am 6.0 1.5 4.2 88 0.8 WNW 17 28 9 15 1010.0 1010.0 6.6
26/05:30am 6.1 1.8 3.4 83 1.1 WNW 15 22 8 12 1009.6 1009.6 6.6
26/05:00am 6.1 0.5 3.3 82 1.2 WNW 22 33 12 18 1009.0 1009.0 6.6
26/04:30am 6.2 1.0 3.4 82 1.2 WNW 20 32 11 17 1008.7 1008.7 6.6
26/04:00am 6.2 1.5 3.4 82 1.2 WNW 17 30 9 16 1008.6 1008.6 6.6
26/03:30am 6.3 1.2 3.3 81 1.3 WNW 19 33 10 18 1008.5 1008.5 6.6
26/03:00am 6.4 0.1 3.7 83 1.1 WNW 26 43 14 23 1008.5 1008.5 6.6
26/02:30am 6.6 0.9 3.0 78 1.5 NW 22 35 12 19 1008.2 1008.2 6.4
26/02:00am 6.8 0.0 3.2 78 1.5 WNW 28 43 15 23 1007.9 1007.9 6.4
26/01:30am 6.9 1.3 3.5 79 1.4 NW 22 35 12 19 1007.8 1007.8 6.4
26/01:00am 6.9 1.7 3.7 80 1.4 WNW 20 37 11 20 1007.8 1007.8 6.4
26/12:30am 7.1 1.9 3.5 78 1.5 WNW 20 46 11 25 1007.9 1007.9 6.4
26/12:00am 7.1 1.5 3.7 79 1.5 WNW 22 35 12 19 1007.5 1007.5 6.4
 
Date/Time
EST
Temp
°C
App
Temp
°C
Dew
Point
°C
Rel
Hum
%
Delta-T
°C
Wind Press
QNH
hPa
Press
MSL
hPa
Rain since
9am
mm
Dir  Spd
km/h
Gust
km/h
Spd
kts
Gust
kts
25/11:30pm 7.0 1.5 4.0 81 1.3 WNW 22 39 12 21 1007.1 1007.1 6.4
25/11:00pm 6.5 1.2 5.1 91 0.6 NW 22 32 12 17 1006.7 1006.7 6.4
25/10:32pm 7.1 0.6 4.8 85 1.0 WNW 28 50 15 27 1006.8 1006.8 6.2
25/10:30pm 7.3 1.6 5.0 85 1.0 WNW 24 43 13 23 1007.1 1007.1 6.2
25/10:00pm 7.6 1.3 4.0 78 1.6 WNW 26 44 14 24 1006.1 1006.1 6.2
25/09:30pm 8.3 0.9 3.9 74 1.9 WNW 32 52 17 28 1005.3 1005.3 6.2
25/09:02pm 8.5 1.5 4.3 75 1.8 NW 30 50 16 27 1004.6 1004.6 6.2
25/09:00pm 8.5 1.5 4.3 75 1.8 NW 30 48 16 26 1004.6 1004.6 6.2
25/08:34pm 8.6 2.2 5.0 78 1.6 WNW 28 50 15 27 1004.7 1004.7 6.2
25/08:30pm 8.5 2.1 5.3 80 1.4 WNW 28 39 15 21 1004.7 1004.7 6.2
25/08:00pm 8.3 1.5 5.1 80 1.4 WNW 30 46 16 25 1004.5 1004.5 6.2
25/07:30pm 8.7 2.0 7.3 91 0.7 WNW 32 54 17 29 1004.0 1004.0 6.2
25/07:12pm 9.2 2.3 7.2 87 0.9 WNW 33 57 18 31 1003.7 1003.7 5.8
25/07:00pm 9.5 2.6 6.4 81 1.4 WNW 32 46 17 25 1003.1 1003.1 5.6
25/06:51pm 9.1 3.1 7.1 87 0.9 NW 28 46 15 25 1002.9 1002.9 5.6
25/06:30pm 8.8 2.5 7.6 92 0.6 NW 30 44 16 24 1002.7 1002.7 5.6
25/06:00pm 8.6 2.3 7.5 93 0.5 NW 30 46 16 25 1002.8 1002.8 5.6
25/05:30pm 8.9 1.4 7.8 93 0.5 WNW 37 72 20 39 1003.3 1003.3 3.6
25/05:24pm 10.4 4.6 9.3 93 0.5 NW 30 61 16 33 1003.4 1003.4 2.6
25/05:21pm 10.6 4.8 9.5 93 0.6 NW 30 48 16 26 1002.9 1002.9 1.8
25/05:00pm 11.9 4.6 7.2 73 2.3 NNW 35 57 19 31 1000.9 1000.9 0.0
25/04:48pm 12.1 5.3 7.0 71 2.4 NNW 32 52 17 28 1000.4 1000.4 0.0
25/04:30pm 12.4 5.4 6.2 66 2.9 NNW 32 50 17 27 1000.4 1000.4 0.0
25/04:00pm 12.9 5.3 5.8 62 3.4 NNW 35 56 19 30 1001.0 1001.0 0.0
25/03:36pm 13.3 5.6 5.5 59 3.7 NNW 35 54 19 29 1001.5 1001.5 0.0
25/03:30pm 13.5 6.3 5.7 59 3.7 NNW 33 50 18 27 1001.8 1001.8 0.0
25/03:00pm 13.1 5.2 4.5 56 4.0 NNW 35 59 19 32 1002.3 1002.3 0.0
25/02:31pm 13.8 6.5 4.4 53 4.3 NNW 32 50 17 27 1002.7 1002.7 0.0
25/02:30pm 14.1 6.8 4.7 53 4.4 NNW 32 48 17 26 1002.9 1002.9 0.0
25/02:00pm 14.1 6.6 4.4 52 4.5 NNW 33 57 18 31 1003.2 1003.2 0.0
25/01:47pm 14.0 6.1 4.3 52 4.5 NNW 35 54 19 29 1003.4 1003.4 0.0
25/01:30pm 14.2 8.1 4.8 53 4.4 NNW 26 43 14 23 1003.9 1003.9 0.0
25/01:10pm 14.3 7.3 4.0 50 4.7 NNW 30 54 16 29 1004.6 1004.6 0.0
25/01:00pm 14.1 8.0 4.7 53 4.4 NNW 26 43 14 23 1005.0 1005.0 0.0

Latest Capital City Observations: Canberra | Sydney | Melbourne | Brisbane | Adelaide | Perth | Hobart | Darwin

Other Formats:

Comma delimited format used in spreadsheet applications
http://www.bom.gov.au/fwo/IDV60901/IDV60901.94857.axf

JavaScript Object Notation format (JSON) in row-major order
http://www.bom.gov.au/fwo/IDV60901/IDV60901.94857.json